KMQS

Chester County G O Carlson Airport

Coatesville, Pennsylvania, USA
METAR KMQS 210655Z AUTO 00000KT 10SM CLR 16/15 A3014 RMK AO2
Observed Flight Rules
May-21 @ 06:55 UTC (26 minutes ago) Visual Flight Rules
Visibility Clouds
10 miles
  • Clear skies
Temperatures Readings
Current 16°C / 61°F
Dewpoint 15°C / 59°F
Humidity 94%
Altimeter 30.14" Hg
Pressure 1021 hPa
Elevation 201
METAR KMQS 210655Z AUTO 00000KT 10SM CLR 16/15 A3014 RMK AO2
Observed Flight Rules
May-21 @ 06:55 UTC
(26 minutes ago)
VFR
Clouds
  • Clear skies
Temperature Dewpoint
16°C / 61°F 15°C / 59°F
Humidity Altimeter Pressure
94% 30.14" Hg 1021 hPa